TOALB weather

Campo di Volo "Flying Tigers"
Albiano d'Ivrea, Piedmont, Italy

Public forecast

Using degrees Celsius for public forecast. Weather courtesy of forecast.io.

Closest aviation weather report (METAR) to Campo di Volo "Flying Tigers"

Closest report is Turin Airport, 18.9 nm (34.9 km) SW. Retrieved 2019/11/13 19:20 UTC (31 minutes ago):

LIMF 131920Z 30007KT CAVOK 06/M01 Q1004

Closest aviation forecast (TAF) to Campo di Volo "Flying Tigers"

Closest forecast is Turin Airport, 18.9 nm (34.9 km) SW. Retrieved 2019/11/13 18:00 UTC (2 hours ago):

TAF LIMF 131700Z 1318/1418 VRB05KT CAVOK BECMG 1409/1412 06010KT 4000 RA BKN012 OVC040